VLG9WA LEPA-LEBL
Flight info
| Callsign | VLG9WA |
|---|---|
| Flight time | 0h 29m |
| Altitude | 16000 |
| Route | ESPOR L2 NEPAL |
| Aircraft | A320/M-SDE3FGHIRWY/LB1 |
Departure
| Time | 2026-05-04 17:31 |
|---|---|
| Airport | Palma de Mallorca Airport (LEPA) |
Arrival
| Time | 2026-05-04 18:01 |
|---|---|
| Airport | Josep Tarradellas Barcelona-El Prat Airport (LEBL) |
| Time | Latitude | Longitude | Altitude | Speed | Heading |
|---|---|---|---|---|---|
| 2026-05-04 17:13 | 39.54851 | 2.73826 | 38 ft | 0 kts | 268° |
| 2026-05-04 17:18 | 39.54852 | 2.73839 | 38 ft | 2 kts | 268° |
| 2026-05-04 17:19 | 39.54853 | 2.73883 | 38 ft | 2 kts | 268° |
| 2026-05-04 17:19 | 39.54854 | 2.73928 | 38 ft | 2 kts | 268° |
| 2026-05-04 17:20 | 39.54855 | 2.73972 | 37 ft | 2 kts | 268° |
| 2026-05-04 17:20 | 39.54856 | 2.73989 | 38 ft | 0 kts | 268° |
| 2026-05-04 17:25 | 39.54856 | 2.73988 | 38 ft | 1 kts | 268° |
| 2026-05-04 17:25 | 39.54956 | 2.74006 | 38 ft | 16 kts | 21° |
| 2026-05-04 17:26 | 39.55166 | 2.73858 | 38 ft | 18 kts | 329° |
| 2026-05-04 17:26 | 39.55419 | 2.73660 | 38 ft | 14 kts | 331° |
| 2026-05-04 17:27 | 39.55565 | 2.73546 | 37 ft | 14 kts | 329° |
| 2026-05-04 17:27 | 39.55746 | 2.73698 | 38 ft | 19 kts | 61° |
| 2026-05-04 17:28 | 39.55900 | 2.73892 | 38 ft | 12 kts | 330° |
| 2026-05-04 17:29 | 39.55921 | 2.73875 | 38 ft | 0 kts | 329° |
| 2026-05-04 17:30 | 39.55993 | 2.73784 | 38 ft | 9 kts | 268° |
| 2026-05-04 17:31 | 39.55838 | 2.73440 | 36 ft | 68 kts | 238° |
| 2026-05-04 17:31 | 39.54403 | 2.70418 | 966 ft | 153 kts | 236° |
| 2026-05-04 17:32 | 39.53169 | 2.67947 | 2071 ft | 174 kts | 235° |
| 2026-05-04 17:33 | 39.50828 | 2.63369 | 3274 ft | 233 kts | 236° |
| 2026-05-04 17:33 | 39.49911 | 2.61569 | 3832 ft | 248 kts | 236° |
| 2026-05-04 17:34 | 39.47004 | 2.55872 | 6562 ft | 255 kts | 236° |
| 2026-05-04 17:34 | 39.46023 | 2.53955 | 7413 ft | 257 kts | 236° |
| 2026-05-04 17:35 | 39.45593 | 2.47380 | 9847 ft | 282 kts | 301° |
| 2026-05-04 17:35 | 39.48961 | 2.44102 | 10639 ft | 329 kts | 323° |
| 2026-05-04 17:35 | 39.50989 | 2.42520 | 10812 ft | 353 kts | 324° |
| 2026-05-04 17:36 | 39.53163 | 2.40866 | 11142 ft | 368 kts | 325° |
| 2026-05-04 17:36 | 39.55485 | 2.39374 | 11761 ft | 378 kts | 335° |
| 2026-05-04 17:36 | 39.58021 | 2.38347 | 12431 ft | 384 kts | 339° |
| 2026-05-04 17:36 | 39.60586 | 2.37339 | 13154 ft | 387 kts | 338° |
| 2026-05-04 17:37 | 39.63163 | 2.36300 | 13776 ft | 389 kts | 338° |
| 2026-05-04 17:37 | 39.65756 | 2.35238 | 14377 ft | 392 kts | 338° |
| 2026-05-04 17:37 | 39.68370 | 2.34157 | 14975 ft | 395 kts | 338° |
| 2026-05-04 17:37 | 39.70993 | 2.33076 | 15563 ft | 398 kts | 338° |
| 2026-05-04 17:38 | 39.73650 | 2.31988 | 15865 ft | 400 kts | 338° |
| 2026-05-04 17:38 | 39.76328 | 2.30899 | 15938 ft | 410 kts | 338° |
| 2026-05-04 17:38 | 39.79102 | 2.29766 | 15938 ft | 426 kts | 338° |
| 2026-05-04 17:38 | 39.81963 | 2.28597 | 15937 ft | 432 kts | 338° |
| 2026-05-04 17:39 | 39.87721 | 2.26251 | 15933 ft | 434 kts | 338° |
| 2026-05-04 17:39 | 39.90597 | 2.25082 | 15930 ft | 434 kts | 338° |
| 2026-05-04 17:39 | 39.93483 | 2.23908 | 15929 ft | 434 kts | 338° |
| 2026-05-04 17:40 | 39.96370 | 2.22728 | 15928 ft | 434 kts | 338° |
| 2026-05-04 17:40 | 39.99252 | 2.21546 | 15925 ft | 434 kts | 338° |
| 2026-05-04 17:40 | 40.02131 | 2.20357 | 15927 ft | 434 kts | 338° |
| 2026-05-04 17:40 | 40.05012 | 2.19165 | 15928 ft | 434 kts | 338° |
| 2026-05-04 17:41 | 40.07891 | 2.17976 | 15927 ft | 435 kts | 338° |
| 2026-05-04 17:41 | 40.10780 | 2.16787 | 15927 ft | 435 kts | 338° |
| 2026-05-04 17:41 | 40.13663 | 2.15599 | 15932 ft | 435 kts | 338° |
| 2026-05-04 17:41 | 40.16553 | 2.14409 | 15934 ft | 436 kts | 338° |
| 2026-05-04 17:42 | 40.19447 | 2.13218 | 15938 ft | 436 kts | 338° |
| 2026-05-04 17:42 | 40.22340 | 2.12025 | 15941 ft | 436 kts | 338° |
| 2026-05-04 17:42 | 40.25238 | 2.10828 | 15937 ft | 436 kts | 338° |
| 2026-05-04 17:42 | 40.28134 | 2.09632 | 15937 ft | 436 kts | 338° |
| 2026-05-04 17:43 | 40.31025 | 2.08435 | 15941 ft | 436 kts | 338° |
| 2026-05-04 17:43 | 40.33923 | 2.07235 | 15939 ft | 436 kts | 338° |
| 2026-05-04 17:43 | 40.36784 | 2.06049 | 15942 ft | 437 kts | 338° |
| 2026-05-04 17:43 | 40.39718 | 2.04831 | 15938 ft | 437 kts | 338° |
| 2026-05-04 17:44 | 40.42573 | 2.03643 | 15934 ft | 437 kts | 338° |
| 2026-05-04 17:44 | 40.45472 | 2.02434 | 15932 ft | 437 kts | 338° |
| 2026-05-04 17:44 | 40.48367 | 2.01225 | 15937 ft | 437 kts | 338° |
| 2026-05-04 17:44 | 40.51301 | 2.00002 | 15932 ft | 437 kts | 338° |
| 2026-05-04 17:45 | 40.54167 | 1.98807 | 15896 ft | 436 kts | 338° |
| 2026-05-04 17:45 | 40.57028 | 1.97616 | 15596 ft | 424 kts | 338° |
| 2026-05-04 17:45 | 40.59786 | 1.96471 | 15462 ft | 408 kts | 338° |
| 2026-05-04 17:45 | 40.62439 | 1.95373 | 15348 ft | 393 kts | 338° |
| 2026-05-04 17:46 | 40.65006 | 1.94316 | 15238 ft | 380 kts | 339° |
| 2026-05-04 17:46 | 40.67584 | 1.93729 | 15074 ft | 375 kts | 353° |
| 2026-05-04 17:46 | 40.70177 | 1.93918 | 14707 ft | 375 kts | 6° |
| 2026-05-04 17:46 | 40.72702 | 1.94941 | 14170 ft | 382 kts | 23° |
| 2026-05-04 17:47 | 40.75016 | 1.96581 | 13740 ft | 375 kts | 27° |
| 2026-05-04 17:47 | 40.77297 | 1.98234 | 12998 ft | 372 kts | 27° |
| 2026-05-04 17:47 | 40.79556 | 1.99855 | 12326 ft | 368 kts | 26° |
| 2026-05-04 17:47 | 40.81785 | 2.01447 | 11983 ft | 361 kts | 26° |
| 2026-05-04 17:48 | 40.83992 | 2.03021 | 11524 ft | 359 kts | 26° |
| 2026-05-04 17:48 | 40.86183 | 2.04585 | 10941 ft | 353 kts | 26° |
| 2026-05-04 17:48 | 40.88274 | 2.06087 | 10781 ft | 332 kts | 26° |
| 2026-05-04 17:48 | 40.90273 | 2.07527 | 10326 ft | 323 kts | 26° |
| 2026-05-04 17:49 | 40.92230 | 2.08937 | 9794 ft | 317 kts | 26° |
| 2026-05-04 17:49 | 40.94132 | 2.10335 | 9564 ft | 312 kts | 27° |
| 2026-05-04 17:49 | 40.96023 | 2.11751 | 9322 ft | 312 kts | 27° |
| 2026-05-04 17:49 | 40.97899 | 2.13167 | 9051 ft | 310 kts | 27° |
| 2026-05-04 17:50 | 40.99768 | 2.14581 | 8776 ft | 308 kts | 28° |
| 2026-05-04 17:50 | 41.01618 | 2.15983 | 8506 ft | 306 kts | 28° |
| 2026-05-04 17:50 | 41.03464 | 2.17378 | 8242 ft | 304 kts | 27° |
| 2026-05-04 17:50 | 41.05296 | 2.18759 | 7973 ft | 303 kts | 27° |
| 2026-05-04 17:51 | 41.07121 | 2.20135 | 7702 ft | 301 kts | 28° |
| 2026-05-04 17:51 | 41.08932 | 2.21500 | 7443 ft | 299 kts | 28° |
| 2026-05-04 17:51 | 41.10736 | 2.22861 | 7179 ft | 297 kts | 28° |
| 2026-05-04 17:51 | 41.12531 | 2.24217 | 6923 ft | 296 kts | 28° |
| 2026-05-04 17:52 | 41.14310 | 2.25561 | 6653 ft | 294 kts | 28° |
| 2026-05-04 17:52 | 41.16082 | 2.26899 | 6395 ft | 292 kts | 28° |
| 2026-05-04 17:52 | 41.17705 | 2.28503 | 6122 ft | 291 kts | 45° |
| 2026-05-04 17:52 | 41.18949 | 2.30619 | 5878 ft | 290 kts | 58° |
| 2026-05-04 17:53 | 41.20040 | 2.32873 | 5642 ft | 290 kts | 57° |
| 2026-05-04 17:53 | 41.21134 | 2.35111 | 5374 ft | 288 kts | 58° |
| 2026-05-04 17:53 | 41.22219 | 2.37326 | 5160 ft | 281 kts | 57° |
| 2026-05-04 17:53 | 41.23298 | 2.39422 | 5029 ft | 269 kts | 49° |
| 2026-05-04 17:54 | 41.24761 | 2.40829 | 4878 ft | 257 kts | 19° |
| 2026-05-04 17:54 | 41.26475 | 2.41159 | 4688 ft | 246 kts | 351° |
| 2026-05-04 17:54 | 41.28082 | 2.40499 | 4439 ft | 241 kts | 332° |
| 2026-05-04 17:54 | 41.29613 | 2.39574 | 4178 ft | 241 kts | 332° |
| 2026-05-04 17:55 | 41.31141 | 2.38656 | 3907 ft | 240 kts | 332° |
| 2026-05-04 17:55 | 41.32633 | 2.37668 | 3637 ft | 238 kts | 322° |
| 2026-05-04 17:55 | 41.33982 | 2.36401 | 3400 ft | 237 kts | 321° |
| 2026-05-04 17:55 | 41.35298 | 2.35138 | 3315 ft | 229 kts | 316° |
| 2026-05-04 17:56 | 41.36308 | 2.33578 | 3219 ft | 218 kts | 296° |
| 2026-05-04 17:56 | 41.36856 | 2.31766 | 3119 ft | 206 kts | 278° |
| 2026-05-04 17:56 | 41.36950 | 2.29926 | 3059 ft | 197 kts | 262° |
| 2026-05-04 17:56 | 41.36638 | 2.28182 | 2879 ft | 192 kts | 245° |
| 2026-05-04 17:57 | 41.36093 | 2.26576 | 2675 ft | 188 kts | 244° |
| 2026-05-04 17:57 | 41.35562 | 2.25013 | 2421 ft | 183 kts | 244° |
| 2026-05-04 17:57 | 41.35045 | 2.23494 | 2174 ft | 178 kts | 244° |
| 2026-05-04 17:57 | 41.34543 | 2.22020 | 1934 ft | 172 kts | 244° |
| 2026-05-04 17:58 | 41.34071 | 2.20632 | 1734 ft | 155 kts | 245° |
| 2026-05-04 17:58 | 41.33648 | 2.19390 | 1507 ft | 143 kts | 244° |
| 2026-05-04 17:58 | 41.33245 | 2.18209 | 1331 ft | 137 kts | 244° |
| 2026-05-04 17:58 | 41.32849 | 2.17047 | 1141 ft | 138 kts | 244° |
| 2026-05-04 17:59 | 41.32449 | 2.15876 | 952 ft | 140 kts | 245° |
| 2026-05-04 17:59 | 41.32046 | 2.14692 | 757 ft | 141 kts | 245° |
| 2026-05-04 17:59 | 41.31224 | 2.12286 | 375 ft | 144 kts | 245° |
| 2026-05-04 18:00 | 41.30810 | 2.11072 | 175 ft | 144 kts | 245° |
| 2026-05-04 18:00 | 41.30405 | 2.09869 | 35 ft | 141 kts | 246° |
| 2026-05-04 18:00 | 41.30037 | 2.08808 | 21 ft | 105 kts | 247° |
| 2026-05-04 18:00 | 41.29805 | 2.08130 | 20 ft | 55 kts | 245° |
| 2026-05-04 18:01 | 41.29753 | 2.07799 | 17 ft | 22 kts | 272° |
| 2026-05-04 18:01 | 41.29763 | 2.07670 | 17 ft | 3 kts | 293° |
| 2026-05-04 18:01 | 41.29774 | 2.07646 | 17 ft | 5 kts | 315° |
| 2026-05-04 18:02 | 41.29855 | 2.07585 | 13 ft | 7 kts | 334° |
| 2026-05-04 18:02 | 41.29898 | 2.07558 | 15 ft | 6 kts | 335° |
| 2026-05-04 18:02 | 41.29933 | 2.07538 | 14 ft | 4 kts | 336° |
| 2026-05-04 18:02 | 41.29978 | 2.07536 | 14 ft | 9 kts | 4° |
| 2026-05-04 18:03 | 41.30047 | 2.07522 | 14 ft | 10 kts | 336° |
| 2026-05-04 18:03 | 41.30074 | 2.07506 | 15 ft | 0 kts | 337° |